Time;durP1;ratioP1;P1;durP2;ratioP2;P2;SDS_P1;SDS_P2;PMS_P1;PMS_P2;Temp;Humidity;BMP_temperature;BMP_pressure;BME280_temperature;BME280_humidity;BME280_pressure;Samples;Min_cycle;Max_cycle;Signal;HPM_P1;HPM_P2
2022/10/16 00:01:22;;;;;;;45.93;40.00;;;13.10;99.90;;;;;;6270253;28;20474;-60
2022/10/16 00:04:25;;;;;;;45.40;38.43;;;13.10;99.90;;;;;;6273902;28;20471;-60
2022/10/16 00:07:29;;;;;;;49.87;39.00;;;13.00;99.90;;;;;;6275463;28;20466;-60
2022/10/16 00:10:32;;;;;;;49.30;40.77;;;13.00;99.90;;;;;;6262074;28;20559;-60
2022/10/16 00:13:37;;;;;;;52.67;39.73;;;13.00;99.90;;;;;;6234233;28;20483;-60
2022/10/16 00:16:42;;;;;;;46.10;38.67;;;13.00;99.90;;;;;;6262156;28;20470;-60
2022/10/16 00:19:45;;;;;;;45.90;37.83;;;13.10;99.90;;;;;;6274369;28;20470;-60
2022/10/16 00:22:48;;;;;;;44.73;38.60;;;13.10;99.90;;;;;;6274538;28;20489;-61
2022/10/16 00:25:58;;;;;;;48.07;38.57;;;13.10;99.90;;;;;;6274569;28;20527;-61
2022/10/16 00:29:02;;;;;;;45.73;37.67;;;13.20;99.90;;;;;;6272709;28;20524;-61
2022/10/16 00:32:07;;;;;;;47.40;37.17;;;13.20;99.90;;;;;;6274513;28;20473;-61
2022/10/16 00:35:11;;;;;;;48.67;38.30;;;13.20;99.90;;;;;;6274508;28;20443;-61
2022/10/16 00:38:14;;;;;;;46.03;36.83;;;13.20;99.90;;;;;;6274721;28;20496;-61
2022/10/16 00:41:18;;;;;;;42.27;34.10;;;13.20;99.90;;;;;;6274742;28;20528;-62
2022/10/16 00:44:45;;;;;;;48.30;37.10;;;13.20;99.90;;;;;;6274938;28;20454;-62
2022/10/16 00:47:52;;;;;;;45.53;36.73;;;13.20;99.90;;;;;;6274651;28;20470;-61
2022/10/16 00:50:57;;;;;;;58.43;44.03;;;13.20;99.90;;;;;;6274996;28;20470;-61
2022/10/16 00:54:01;;;;;;;49.90;42.07;;;13.20;99.90;;;;;;6275130;28;20815;-61
2022/10/16 00:57:06;;;;;;;44.43;37.13;;;13.10;99.90;;;;;;6275414;28;20470;-61
2022/10/16 01:00:16;;;;;;;44.53;37.30;;;13.10;99.90;;;;;;6274916;28;20556;-61
2022/10/16 01:03:27;;;;;;;45.53;36.90;;;13.10;99.90;;;;;;6260308;28;20500;-61
2022/10/16 01:06:40;;;;;;;45.20;37.73;;;13.20;99.90;;;;;;6274906;28;20479;-61
2022/10/16 01:09:54;;;;;;;41.77;34.40;;;13.20;99.90;;;;;;6273404;28;20636;-61
2022/10/16 01:13:01;;;;;;;44.13;37.30;;;13.20;99.90;;;;;;6272979;28;21002;-61
2022/10/16 01:16:08;;;;;;;44.23;35.80;;;13.20;99.90;;;;;;6273370;28;20471;-61
2022/10/16 01:19:20;;;;;;;42.47;36.57;;;13.20;99.90;;;;;;6272637;28;20475;-61
2022/10/16 01:22:31;;;;;;;45.37;38.10;;;13.20;99.90;;;;;;6273153;28;20486;-61
2022/10/16 01:25:50;;;;;;;47.53;38.97;;;13.10;99.90;;;;;;6273851;28;20484;-61
2022/10/16 01:28:58;;;;;;;43.00;37.50;;;13.20;99.90;;;;;;6274458;28;20471;-59
2022/10/16 01:32:09;;;;;;;41.13;35.10;;;13.10;99.90;;;;;;6274324;28;20851;-61
2022/10/16 01:35:21;;;;;;;42.10;37.50;;;13.10;99.90;;;;;;6273899;28;20446;-61
2022/10/16 01:38:30;;;;;;;40.67;34.53;;;13.10;99.90;;;;;;6274245;28;20485;-59
2022/10/16 01:41:37;;;;;;;42.10;35.20;;;13.00;99.90;;;;;;6274054;28;20506;-60
2022/10/16 01:44:43;;;;;;;42.53;34.30;;;13.00;99.90;;;;;;6274244;28;20477;-60
2022/10/16 01:47:49;;;;;;;44.00;33.97;;;13.00;99.90;;;;;;6273840;28;21037;-61
2022/10/16 01:50:57;;;;;;;45.37;36.03;;;12.90;99.90;;;;;;6275585;28;20990;-61
2022/10/16 01:54:02;;;;;;;47.50;34.50;;;13.00;99.90;;;;;;6278601;28;20473;-61
2022/10/16 01:57:08;;;;;;;40.00;32.50;;;12.90;99.90;;;;;;6278789;28;20531;-61
2022/10/16 02:00:17;;;;;;;41.07;33.60;;;12.90;99.90;;;;;;6279000;28;20470;-61
2022/10/16 02:03:21;;;;;;;48.20;36.73;;;12.90;99.90;;;;;;6273976;28;20485;-61
2022/10/16 02:06:25;;;;;;;40.90;34.63;;;12.90;99.90;;;;;;6278354;28;20496;-61
2022/10/16 02:09:30;;;;;;;40.77;33.87;;;12.90;99.90;;;;;;6278024;28;20792;-61
2022/10/16 02:12:35;;;;;;;42.60;33.47;;;12.90;99.90;;;;;;6277946;28;20482;-60
2022/10/16 02:15:40;;;;;;;38.70;33.37;;;12.90;99.90;;;;;;6277546;28;20481;-60
2022/10/16 02:18:44;;;;;;;40.87;33.67;;;13.00;99.90;;;;;;6277824;28;20838;-60
2022/10/16 02:21:52;;;;;;;49.80;37.00;;;13.00;99.90;;;;;;6278291;28;20485;-59
2022/10/16 02:24:59;;;;;;;46.40;35.47;;;13.00;99.90;;;;;;6278240;28;20830;-59
2022/10/16 02:28:08;;;;;;;42.30;33.50;;;12.90;99.90;;;;;;6277888;28;20990;-60
2022/10/16 02:31:17;;;;;;;44.40;34.13;;;13.00;99.90;;;;;;6277629;28;20479;-61
2022/10/16 02:34:23;;;;;;;41.93;34.30;;;12.90;99.90;;;;;;6277949;28;20477;-60
2022/10/16 02:37:27;;;;;;;42.27;33.87;;;12.90;99.90;;;;;;6277450;28;20482;-60
2022/10/16 02:40:31;;;;;;;44.47;35.20;;;12.90;99.90;;;;;;6277622;28;21287;-60
2022/10/16 02:43:35;;;;;;;44.27;35.30;;;12.80;99.90;;;;;;6277734;28;20494;-61
2022/10/16 02:46:39;;;;;;;38.77;33.90;;;12.80;99.90;;;;;;6277442;28;20797;-62
2022/10/16 02:49:43;;;;;;;41.33;36.73;;;12.80;99.90;;;;;;6277647;28;20475;-60
2022/10/16 02:52:46;;;;;;;43.03;34.57;;;12.80;99.90;;;;;;6277056;28;20484;-60
2022/10/16 02:55:49;;;;;;;42.47;33.40;;;12.70;99.90;;;;;;6277432;28;20474;-60
2022/10/16 02:58:52;;;;;;;41.37;34.67;;;12.70;99.90;;;;;;6277590;28;20844;-60
2022/10/16 03:01:57;;;;;;;44.20;36.20;;;12.70;99.90;;;;;;6276979;28;20488;-60
2022/10/16 03:05:00;;;;;;;40.43;34.93;;;12.70;99.90;;;;;;6277249;28;20983;-60
2022/10/16 03:08:04;;;;;;;43.43;35.77;;;12.70;99.90;;;;;;6276908;28;20469;-60
2022/10/16 03:11:10;;;;;;;37.77;33.37;;;12.70;99.90;;;;;;6277043;28;20469;-61
2022/10/16 03:14:13;;;;;;;41.67;35.20;;;12.60;99.90;;;;;;6277646;28;20484;-61
2022/10/16 03:17:18;;;;;;;41.43;34.67;;;12.60;99.90;;;;;;6276880;28;20446;-60
2022/10/16 03:20:21;;;;;;;45.33;35.30;;;12.60;99.90;;;;;;6277186;28;20512;-61
2022/10/16 03:23:25;;;;;;;39.80;34.00;;;12.60;99.90;;;;;;6276410;28;20469;-60
2022/10/16 03:26:28;;;;;;;40.70;34.10;;;12.60;99.90;;;;;;6275314;28;20611;-60
2022/10/16 03:29:32;;;;;;;37.77;33.67;;;12.60;99.90;;;;;;6274829;28;20583;-60
2022/10/16 03:32:37;;;;;;;38.17;34.00;;;12.50;99.90;;;;;;6274424;28;20478;-61
2022/10/16 03:35:40;;;;;;;39.50;34.53;;;12.50;99.90;;;;;;6274770;28;20467;-60
2022/10/16 03:38:43;;;;;;;44.00;35.90;;;12.50;99.90;;;;;;6275259;28;20536;-60
2022/10/16 03:41:47;;;;;;;43.40;36.27;;;12.40;99.90;;;;;;6275685;28;20482;-60
2022/10/16 03:44:50;;;;;;;40.10;34.63;;;12.40;99.90;;;;;;6275201;28;20477;-60
2022/10/16 03:47:54;;;;;;;40.77;35.97;;;12.40;99.90;;;;;;6276068;28;20593;-60
2022/10/16 03:50:58;;;;;;;39.33;35.07;;;12.40;99.90;;;;;;6275446;28;20793;-60
2022/10/16 03:54:01;;;;;;;43.47;33.40;;;12.40;99.90;;;;;;6275414;28;20478;-60
2022/10/16 03:57:04;;;;;;;40.60;34.30;;;12.50;99.90;;;;;;6275299;28;20474;-59
2022/10/16 04:00:08;;;;;;;42.37;34.70;;;12.50;99.90;;;;;;6275425;28;20484;-60
2022/10/16 04:03:13;;;;;;;39.73;33.10;;;12.40;99.90;;;;;;6275054;28;20497;-59
2022/10/16 04:06:16;;;;;;;38.30;33.17;;;12.40;99.90;;;;;;6274980;28;21030;-59
2022/10/16 04:09:20;;;;;;;39.27;33.70;;;12.40;99.90;;;;;;6266092;28;20508;-60
2022/10/16 04:12:23;;;;;;;42.37;34.27;;;12.40;99.90;;;;;;6274894;28;20846;-60
2022/10/16 04:15:26;;;;;;;41.60;35.07;;;12.40;99.90;;;;;;6274491;28;20466;-60
2022/10/16 04:18:31;;;;;;;40.83;34.13;;;12.40;99.90;;;;;;6274730;28;20927;-59
2022/10/16 04:21:34;;;;;;;44.43;36.33;;;12.50;99.90;;;;;;6275319;28;20493;-59
2022/10/16 04:24:38;;;;;;;39.97;33.70;;;12.40;99.90;;;;;;6275249;28;20486;-59
2022/10/16 04:27:41;;;;;;;42.20;35.13;;;12.50;99.90;;;;;;6274602;28;20478;-60
2022/10/16 04:30:48;;;;;;;38.37;33.40;;;12.50;99.90;;;;;;6274890;28;20471;-60
2022/10/16 04:33:52;;;;;;;44.53;35.30;;;12.50;99.90;;;;;;6274170;28;20471;-59
2022/10/16 04:36:56;;;;;;;45.77;36.43;;;12.50;99.90;;;;;;6275070;28;20475;-59
2022/10/16 04:39:59;;;;;;;39.17;32.87;;;12.50;99.90;;;;;;6274341;28;20489;-59
2022/10/16 04:43:02;;;;;;;38.70;34.50;;;12.50;99.90;;;;;;6274043;28;20477;-59
2022/10/16 04:46:06;;;;;;;42.67;34.90;;;12.50;99.90;;;;;;6274149;28;20474;-59
2022/10/16 04:49:10;;;;;;;43.93;33.90;;;12.60;99.90;;;;;;6274331;28;20500;-60
2022/10/16 04:52:14;;;;;;;42.40;34.47;;;12.60;99.90;;;;;;6274552;28;20482;-60
2022/10/16 04:55:17;;;;;;;42.13;34.80;;;12.60;99.90;;;;;;6274333;28;20480;-60
2022/10/16 04:58:20;;;;;;;40.80;32.97;;;12.60;99.90;;;;;;6274450;28;20481;-60
2022/10/16 05:01:24;;;;;;;38.93;32.40;;;12.60;99.90;;;;;;6274039;28;20466;-60
2022/10/16 05:04:28;;;;;;;42.33;36.47;;;12.60;99.90;;;;;;6274224;28;20478;-60
2022/10/16 05:07:32;;;;;;;42.97;35.60;;;12.60;99.90;;;;;;6275584;28;20484;-61
2022/10/16 05:10:35;;;;;;;44.33;37.73;;;12.50;99.90;;;;;;6274173;28;20808;-60
2022/10/16 05:13:38;;;;;;;42.90;37.20;;;12.50;99.90;;;;;;6269029;28;20474;-60
2022/10/16 05:16:42;;;;;;;55.40;39.97;;;12.50;99.90;;;;;;6274249;28;20466;-60
2022/10/16 05:19:46;;;;;;;47.50;39.90;;;12.40;99.90;;;;;;6273863;28;20478;-60
2022/10/16 05:22:50;;;;;;;47.20;38.97;;;12.30;99.90;;;;;;6273982;28;20481;-60
2022/10/16 05:25:55;;;;;;;46.00;40.97;;;12.30;99.90;;;;;;6275613;28;20627;-60
2022/10/16 05:28:58;;;;;;;40.83;36.37;;;12.30;99.90;;;;;;6278940;28;20493;-60
2022/10/16 05:32:01;;;;;;;52.87;39.47;;;12.30;99.90;;;;;;6278555;28;20983;-61
2022/10/16 05:35:07;;;;;;;48.37;39.20;;;12.30;99.90;;;;;;6278716;28;20450;-60
2022/10/16 05:38:14;;;;;;;44.60;37.57;;;12.30;99.90;;;;;;6278982;28;20455;-59
2022/10/16 05:41:21;;;;;;;49.27;39.60;;;12.40;99.90;;;;;;6278476;28;20792;-60
2022/10/16 05:44:24;;;;;;;39.60;35.27;;;12.40;99.90;;;;;;6278609;28;20470;-60
2022/10/16 05:47:28;;;;;;;50.43;35.70;;;12.50;99.90;;;;;;6278255;28;20455;-61
2022/10/16 05:50:33;;;;;;;41.00;36.47;;;12.50;99.90;;;;;;6278539;28;20466;-60
2022/10/16 05:53:38;;;;;;;46.27;35.43;;;12.50;99.90;;;;;;6278688;28;20477;-60
2022/10/16 05:56:41;;;;;;;41.07;35.70;;;12.50;99.90;;;;;;6278508;28;20470;-60
2022/10/16 05:59:45;;;;;;;36.70;31.83;;;12.50;99.90;;;;;;6278367;28;20477;-60
2022/10/16 06:02:48;;;;;;;44.50;34.33;;;12.60;99.90;;;;;;6278191;28;20474;-60
2022/10/16 06:05:53;;;;;;;38.50;34.30;;;12.60;99.90;;;;;;6278219;28;20478;-60
2022/10/16 06:08:59;;;;;;;53.60;34.00;;;12.60;99.90;;;;;;6278049;28;20489;-60
2022/10/16 06:12:02;;;;;;;36.67;32.60;;;12.70;99.90;;;;;;6278259;28;20488;-61
2022/10/16 06:15:06;;;;;;;38.83;34.67;;;12.70;99.90;;;;;;6277901;28;20469;-60
2022/10/16 06:18:10;;;;;;;40.30;33.57;;;12.60;99.90;;;;;;6277559;28;20470;-60
2022/10/16 06:21:18;;;;;;;40.20;34.50;;;12.60;99.90;;;;;;6277425;28;20474;-60
2022/10/16 06:24:21;;;;;;;45.60;35.50;;;12.70;99.90;;;;;;6277281;28;20470;-60
2022/10/16 06:27:24;;;;;;;38.40;34.30;;;12.90;99.90;;;;;;6277559;28;20812;-60
2022/10/16 06:30:28;;;;;;;39.63;33.77;;;13.00;99.90;;;;;;6277044;28;20478;-60
2022/10/16 06:33:32;;;;;;;37.13;32.67;;;13.20;99.90;;;;;;6277510;28;20822;-60
2022/10/16 06:36:37;;;;;;;36.93;33.03;;;13.40;99.90;;;;;;6277188;28;20891;-60
2022/10/16 06:39:40;;;;;;;37.43;32.37;;;13.60;99.90;;;;;;6277677;28;20485;-61
2022/10/16 06:42:44;;;;;;;35.87;31.07;;;13.80;99.90;;;;;;6277123;28;20482;-61
2022/10/16 06:45:52;;;;;;;36.53;32.70;;;14.10;99.90;;;;;;6277226;28;20501;-61
2022/10/16 06:48:55;;;;;;;34.47;30.87;;;14.30;99.90;;;;;;6276203;28;20474;-61
2022/10/16 06:52:01;;;;;;;36.43;32.60;;;14.50;99.90;;;;;;6276548;28;21016;-61
2022/10/16 06:55:05;;;;;;;38.30;34.30;;;14.40;99.90;;;;;;6276608;28;20493;-61
2022/10/16 06:58:08;;;;;;;35.40;31.50;;;14.30;99.90;;;;;;6276358;28;20474;-61
2022/10/16 07:01:13;;;;;;;36.53;32.73;;;14.40;99.90;;;;;;6277115;28;20478;-61
2022/10/16 07:04:17;;;;;;;35.20;31.57;;;14.40;99.90;;;;;;6278383;28;20975;-61
2022/10/16 07:07:24;;;;;;;33.50;30.00;;;14.40;99.90;;;;;;6279846;28;20470;-61
2022/10/16 07:10:27;;;;;;;35.80;31.23;;;14.30;99.90;;;;;;6280535;28;20466;-60
2022/10/16 07:13:33;;;;;;;35.70;31.30;;;14.40;99.90;;;;;;6276995;28;20963;-61
2022/10/16 07:16:37;;;;;;;34.33;30.63;;;14.40;99.90;;;;;;6276593;28;20470;-60
2022/10/16 07:19:40;;;;;;;34.90;31.00;;;14.40;99.90;;;;;;6276334;28;20474;-60
2022/10/16 07:22:45;;;;;;;34.50;30.90;;;14.50;99.90;;;;;;6276762;28;20567;-61
2022/10/16 07:25:55;;;;;;;34.63;31.03;;;14.50;99.90;;;;;;6276027;28;20493;-59
2022/10/16 07:28:58;;;;;;;34.30;30.60;;;14.50;99.90;;;;;;6275750;28;20482;-60
2022/10/16 07:32:03;;;;;;;32.63;29.20;;;14.50;99.90;;;;;;6276231;28;20497;-60
2022/10/16 07:35:07;;;;;;;34.53;29.40;;;14.60;99.90;;;;;;6275561;28;20564;-61
2022/10/16 07:38:12;;;;;;;33.93;30.20;;;14.70;99.90;;;;;;6275919;28;20434;-61
2022/10/16 07:41:18;;;;;;;37.10;32.40;;;14.70;99.90;;;;;;6276027;28;20771;-61
2022/10/16 07:44:21;;;;;;;34.33;30.63;;;14.80;99.90;;;;;;6275402;28;20735;-60
2022/10/16 07:47:24;;;;;;;34.07;30.70;;;14.90;99.90;;;;;;6275356;28;20477;-60
2022/10/16 07:50:28;;;;;;;32.33;29.03;;;15.00;99.90;;;;;;6274889;28;20787;-60
2022/10/16 07:53:33;;;;;;;33.50;30.20;;;15.20;99.90;;;;;;6275268;28;20467;-60
2022/10/16 07:56:37;;;;;;;34.70;31.00;;;15.20;99.90;;;;;;6275567;28;20763;-60
2022/10/16 07:59:45;;;;;;;32.40;28.47;;;15.40;99.90;;;;;;6275503;28;20458;-60
2022/10/16 08:02:49;;;;;;;32.50;29.10;;;15.60;99.90;;;;;;6275293;28;20576;-61
2022/10/16 08:05:52;;;;;;;30.33;27.37;;;15.80;99.90;;;;;;6275076;28;20474;-60
2022/10/16 08:08:59;;;;;;;28.93;26.23;;;17.10;99.90;;;;;;6274747;28;20486;-60
2022/10/16 08:12:04;;;;;;;26.07;23.43;;;20.90;99.90;;;;;;6274575;28;20801;-62
2022/10/16 08:15:08;;;;;;;28.70;26.23;;;24.90;98.90;;;;;;6274707;28;20302;-62
2022/10/16 08:18:13;;;;;;;28.53;26.13;;;26.90;88.50;;;;;;6274873;28;20538;-62
2022/10/16 08:21:18;;;;;;;28.63;26.13;;;28.70;77.50;;;;;;6274805;28;20247;-62
2022/10/16 08:24:25;;;;;;;28.83;26.53;;;29.60;68.60;;;;;;6265113;28;20288;-62
2022/10/16 08:27:32;;;;;;;29.85;27.33;;;31.00;62.40;;;;;;6273521;28;20569;-63
2022/10/16 08:30:35;;;;;;;28.20;26.10;;;33.30;54.20;;;;;;6272734;28;20285;-62
2022/10/16 08:33:39;;;;;;;27.25;25.25;;;34.50;49.70;;;;;;6273195;28;20240;-62
2022/10/16 08:36:43;;;;;;;28.52;26.63;;;35.00;45.70;;;;;;6269028;28;20661;-62
2022/10/16 08:39:47;;;;;;;27.77;25.67;;;36.10;43.60;;;;;;6273879;28;20241;-62
2022/10/16 08:43:17;;;;;;;27.25;25.33;;;37.40;40.00;;;;;;6273171;28;20234;-62
2022/10/16 08:46:31;;;;;;;27.23;25.33;;;38.30;38.00;;;;;;6255767;28;20384;-62
2022/10/16 08:49:36;;;;;;;27.25;25.35;;;39.30;35.70;;;;;;6272760;28;20591;-62
2022/10/16 08:52:43;;;;;;;27.05;25.15;;;40.00;33.90;;;;;;6272819;28;20802;-62
2022/10/16 08:55:51;;;;;;;27.13;25.33;;;40.90;32.30;;;;;;6272815;28;20233;-62
2022/10/16 08:58:55;;;;;;;26.95;25.25;;;41.60;30.30;;;;;;6272468;28;20369;-62
2022/10/16 09:02:25;;;;;;;28.27;26.30;;;42.20;29.60;;;;;;6272842;28;20224;-63
2022/10/16 09:05:58;;;;;;;26.92;25.00;;;42.90;28.60;;;;;;6272333;28;20305;-62
2022/10/16 09:09:15;;;;;;;31.73;29.48;;;43.20;28.00;;;;;;6272697;28;20221;-63
2022/10/16 09:12:23;;;;;;;26.05;24.38;;;43.70;27.40;;;;;;6274287;28;20226;-63
2022/10/16 09:15:36;;;;;;;27.55;25.65;;;44.00;26.60;;;;;;6270223;28;20240;-63
2022/10/16 09:18:43;;;;;;;26.27;24.48;;;43.80;27.00;;;;;;6274320;28;20230;-63
2022/10/16 09:21:47;;;;;;;27.15;25.25;;;44.80;26.30;;;;;;6270281;28;20242;-63
2022/10/16 09:24:50;;;;;;;25.73;23.95;;;44.60;25.80;;;;;;6274436;28;20232;-62
2022/10/16 09:27:56;;;;;;;23.88;22.35;;;45.00;25.60;;;;;;6265085;28;20231;-62
2022/10/16 09:30:59;;;;;;;26.30;24.50;;;45.30;25.30;;;;;;6274584;28;20714;-62
2022/10/16 09:34:05;;;;;;;26.48;24.67;;;45.90;24.80;;;;;;6273873;28;20269;-63
2022/10/16 09:37:13;;;;;;;25.20;23.50;;;46.50;23.90;;;;;;6274205;28;20233;-63
2022/10/16 09:40:27;;;;;;;25.27;23.67;;;47.00;23.80;;;;;;6274382;28;20295;-63
2022/10/16 09:43:37;;;;;;;24.40;22.50;;;47.00;23.30;;;;;;6274138;28;20238;-63
2022/10/16 09:46:40;;;;;;;24.88;22.95;;;47.60;23.00;;;;;;6274515;28;20284;-63
2022/10/16 09:49:52;;;;;;;25.33;23.63;;;47.80;22.60;;;;;;6274119;28;20672;-63
2022/10/16 09:53:07;;;;;;;25.63;23.83;;;48.00;22.80;;;;;;6273801;28;20227;-63
2022/10/16 09:56:13;;;;;;;24.27;22.58;;;48.20;22.20;;;;;;6275445;28;20225;-63
2022/10/16 09:59:20;;;;;;;26.30;24.27;;;48.60;21.80;;;;;;6274969;28;20206;-63
2022/10/16 10:02:30;;;;;;;24.27;22.52;;;48.30;21.80;;;;;;6273704;28;20227;-63
2022/10/16 10:05:33;;;;;;;24.52;22.80;;;48.90;21.70;;;;;;6274172;28;20225;-63
2022/10/16 10:08:37;;;;;;;24.83;23.27;;;49.70;21.00;;;;;;6273892;28;20229;-64
2022/10/16 10:11:43;;;;;;;22.25;20.80;;;50.20;20.70;;;;;;6256356;28;20227;-62
2022/10/16 10:14:49;;;;;;;23.48;21.85;;;49.80;20.30;;;;;;6235702;28;20225;-62
2022/10/16 10:17:54;;;;;;;23.52;21.63;;;49.70;20.30;;;;;;6253138;28;20233;-63
2022/10/16 10:21:01;;;;;;;22.05;20.60;;;50.30;20.20;;;;;;6252904;28;20222;-62
2022/10/16 10:24:12;;;;;;;21.08;19.58;;;51.00;19.70;;;;;;6270287;28;20231;-63
2022/10/16 10:27:19;;;;;;;22.52;21.02;;;51.20;19.60;;;;;;6275310;28;20219;-63
2022/10/16 10:30:28;;;;;;;22.20;20.77;;;51.80;19.30;;;;;;6228516;28;20232;-63
2022/10/16 10:33:39;;;;;;;22.30;20.80;;;51.20;18.90;;;;;;6228201;28;20232;-62
2022/10/16 10:36:44;;;;;;;20.90;19.50;;;51.90;19.00;;;;;;6228225;28;20239;-62
2022/10/16 10:39:57;;;;;;;20.50;19.17;;;51.30;18.90;;;;;;6228353;28;20258;-62
2022/10/16 10:43:06;;;;;;;20.90;19.50;;;51.80;18.50;;;;;;6236734;28;20251;-62
2022/10/16 10:46:20;;;;;;;22.33;20.80;;;52.30;18.00;;;;;;6271710;28;20277;-63
2022/10/16 10:49:39;;;;;;;22.30;20.80;;;52.60;17.90;;;;;;6255457;28;20235;-62
2022/10/16 10:52:57;;;;;;;19.75;18.35;;;52.70;18.10;;;;;;6277292;28;20337;-63
2022/10/16 10:56:11;;;;;;;20.52;19.13;;;52.90;17.80;;;;;;6278210;28;20288;-63
2022/10/16 10:59:39;;;;;;;21.08;19.77;;;53.50;17.40;;;;;;6277639;28;20545;-63
2022/10/16 11:02:49;;;;;;;20.58;19.27;;;53.60;17.40;;;;;;6260825;28;20246;-63
2022/10/16 11:05:57;;;;;;;20.90;19.58;;;53.70;17.30;;;;;;6277630;28;20292;-63
2022/10/16 11:09:07;;;;;;;20.83;18.88;;;52.80;17.30;;;;;;6276813;28;20246;-63
2022/10/16 11:12:15;;;;;;;21.00;19.48;;;52.30;17.80;;;;;;6269521;28;20223;-63
2022/10/16 11:15:24;;;;;;;20.70;19.23;;;51.80;17.90;;;;;;6252450;28;20281;-62
2022/10/16 11:18:38;;;;;;;21.23;19.55;;;50.10;18.50;;;;;;6253197;28;20242;-63
2022/10/16 11:21:50;;;;;;;21.83;20.13;;;49.60;18.90;;;;;;6228677;28;20240;-62
2022/10/16 11:25:00;;;;;;;19.35;17.73;;;47.80;19.70;;;;;;6258896;28;20231;-62
2022/10/16 11:28:09;;;;;;;20.95;19.45;;;47.60;20.10;;;;;;6275856;28;20219;-62
2022/10/16 11:31:18;;;;;;;19.15;17.63;;;48.10;19.90;;;;;;6265055;28;20231;-63
2022/10/16 11:34:29;;;;;;;17.25;16.05;;;49.50;19.30;;;;;;6276092;28;20609;-64
2022/10/16 11:37:43;;;;;;;19.13;17.73;;;50.60;18.70;;;;;;6275873;28;20239;-63
2022/10/16 11:40:51;;;;;;;17.85;16.65;;;51.50;17.90;;;;;;6276652;28;20230;-63
2022/10/16 11:44:07;;;;;;;17.35;16.02;;;51.50;17.60;;;;;;6276091;28;20235;-63
2022/10/16 11:47:19;;;;;;;17.58;16.40;;;51.80;17.60;;;;;;6264148;28;20212;-63
2022/10/16 11:50:49;;;;;;;17.75;16.45;;;52.20;17.40;;;;;;6251570;28;20227;-61
2022/10/16 11:54:00;;;;;;;18.98;17.20;;;51.60;17.40;;;;;;6254259;28;20227;-62
2022/10/16 11:57:11;;;;;;;18.75;17.30;;;51.60;17.50;;;;;;6252391;28;20235;-62
2022/10/16 12:00:23;;;;;;;17.95;16.55;;;52.60;17.20;;;;;;6250820;28;20240;-61
2022/10/16 12:03:31;;;;;;;17.38;15.75;;;52.10;16.80;;;;;;6272900;28;20241;-62
2022/10/16 12:06:41;;;;;;;17.42;16.23;;;51.70;17.20;;;;;;6275278;28;20648;-62
2022/10/16 12:09:45;;;;;;;16.75;15.65;;;52.10;17.10;;;;;;6275612;28;20223;-60
2022/10/16 12:12:48;;;;;;;16.77;15.68;;;52.40;16.90;;;;;;6262894;28;20223;-61
2022/10/16 12:15:51;;;;;;;16.40;15.18;;;52.40;16.80;;;;;;6250594;28;20236;-60
2022/10/16 12:19:12;;;;;;;16.13;15.02;;;51.60;17.20;;;;;;6246024;28;20242;-60
2022/10/16 12:22:19;;;;;;;15.48;14.27;;;51.80;17.20;;;;;;6225792;28;20246;-60
2022/10/16 12:25:28;;;;;;;16.80;15.52;;;51.70;17.10;;;;;;6226140;28;20242;-60
2022/10/16 12:28:32;;;;;;;16.48;15.30;;;50.70;17.60;;;;;;6225705;28;20237;-60
2022/10/16 12:31:40;;;;;;;16.90;15.80;;;50.50;18.10;;;;;;6233482;28;20237;-60
2022/10/16 12:35:01;;;;;;;18.23;16.77;;;50.20;18.20;;;;;;6273918;28;20231;-60
2022/10/16 12:38:16;;;;;;;17.25;15.88;;;50.30;18.10;;;;;;6264872;28;20230;-60
2022/10/16 12:41:26;;;;;;;18.65;17.25;;;49.90;18.60;;;;;;6274296;28;20217;-60
2022/10/16 12:44:34;;;;;;;17.80;16.35;;;48.70;19.40;;;;;;6274486;28;20230;-60
2022/10/16 12:47:48;;;;;;;18.38;16.95;;;49.20;19.50;;;;;;6274226;28;20300;-60
2022/10/16 12:50:51;;;;;;;17.65;16.45;;;49.20;19.40;;;;;;6277005;28;20690;-61
2022/10/16 12:54:02;;;;;;;17.98;16.58;;;50.00;18.70;;;;;;6275886;28;20577;-61
2022/10/16 12:57:31;;;;;;;19.10;17.50;;;49.50;19.10;;;;;;6274679;28;20272;-60
2022/10/16 13:00:45;;;;;;;18.08;16.83;;;48.00;20.10;;;;;;6225403;28;20243;-60
2022/10/16 13:04:11;;;;;;;20.60;18.98;;;47.50;20.40;;;;;;6257573;28;20668;-60
2022/10/16 13:07:33;;;;;;;18.52;17.23;;;47.90;20.00;;;;;;6274599;28;20227;-63
2022/10/16 13:10:42;;;;;;;18.83;17.42;;;46.90;20.50;;;;;;6274218;28;20233;-62
2022/10/16 13:14:12;;;;;;;18.00;16.58;;;46.30;21.00;;;;;;6267400;28;20226;-62
2022/10/16 13:17:26;;;;;;;17.55;16.27;;;46.70;20.60;;;;;;6272732;28;20648;-62
2022/10/16 13:20:35;;;;;;;17.23;16.02;;;45.50;20.90;;;;;;6271234;28;20230;-61
2022/10/16 13:23:47;;;;;;;16.90;15.65;;;45.30;21.10;;;;;;6274460;28;20233;-61
2022/10/16 13:26:58;;;;;;;16.25;15.10;;;45.50;20.70;;;;;;6273782;28;20319;-62
2022/10/16 13:30:09;;;;;;;16.38;15.00;;;45.40;20.60;;;;;;6273383;28;20688;-62
2022/10/16 13:33:17;;;;;;;15.05;13.75;;;43.70;21.10;;;;;;6273576;28;20280;-61
2022/10/16 13:36:22;;;;;;;14.18;13.23;;;42.40;22.10;;;;;;6274209;28;20608;-61
2022/10/16 13:39:27;;;;;;;16.65;15.18;;;40.70;23.20;;;;;;6269433;28;20303;-61
2022/10/16 13:42:33;;;;;;;17.25;15.85;;;37.80;25.20;;;;;;6273621;28;20244;-61
2022/10/16 13:45:36;;;;;;;17.90;16.25;;;35.80;27.80;;;;;;6273856;28;20246;-61
2022/10/16 13:48:40;;;;;;;18.25;16.67;;;33.60;30.40;;;;;;6277311;28;20227;-60
2022/10/16 13:51:55;;;;;;;18.67;17.17;;;32.00;33.10;;;;;;6277233;28;20234;-62
2022/10/16 13:54:58;;;;;;;20.85;19.15;;;30.50;36.20;;;;;;6278333;28;20791;-61
2022/10/16 13:58:13;;;;;;;19.17;17.50;;;29.50;38.30;;;;;;6277584;28;20907;-60
2022/10/16 14:01:19;;;;;;;18.73;17.13;;;28.20;40.40;;;;;;6277091;28;20227;-60
2022/10/16 14:04:23;;;;;;;18.50;16.90;;;27.40;42.00;;;;;;6276173;28;20239;-61
2022/10/16 14:07:28;;;;;;;19.07;17.30;;;27.10;43.60;;;;;;6276612;28;20312;-61
2022/10/16 14:10:33;;;;;;;20.37;18.57;;;26.70;44.30;;;;;;6276847;28;20330;-61
2022/10/16 14:13:43;;;;;;;19.40;17.70;;;26.40;45.50;;;;;;6277226;28;20676;-61
2022/10/16 14:16:47;;;;;;;18.73;16.93;;;26.20;46.00;;;;;;6278020;28;20254;-60
2022/10/16 14:19:53;;;;;;;18.07;16.33;;;25.90;46.20;;;;;;6277487;28;20227;-60
2022/10/16 14:23:05;;;;;;;18.60;16.83;;;25.50;46.80;;;;;;6277966;28;20235;-60
2022/10/16 14:26:19;;;;;;;18.33;16.60;;;25.20;48.40;;;;;;6277709;28;20230;-60
2022/10/16 14:29:25;;;;;;;20.07;18.07;;;25.00;48.80;;;;;;6277668;28;20646;-60
2022/10/16 14:32:29;;;;;;;19.07;17.33;;;25.00;49.70;;;;;;6277417;28;20246;-60
2022/10/16 14:35:35;;;;;;;19.70;17.70;;;24.90;50.70;;;;;;6277399;28;20238;-60
2022/10/16 14:38:40;;;;;;;19.03;17.23;;;24.80;51.00;;;;;;6277471;28;20555;-60
2022/10/16 14:41:46;;;;;;;20.80;18.83;;;24.70;51.40;;;;;;6277776;28;20242;-60
2022/10/16 14:44:53;;;;;;;21.57;18.40;;;24.40;52.70;;;;;;6272980;28;20223;-60
2022/10/16 14:47:58;;;;;;;19.60;17.50;;;24.30;53.60;;;;;;6277720;28;20235;-60
2022/10/16 14:51:02;;;;;;;20.27;18.37;;;24.10;54.10;;;;;;6278022;28;20673;-60
2022/10/16 14:54:05;;;;;;;22.70;20.60;;;24.00;54.80;;;;;;6277279;28;20246;-60
2022/10/16 14:57:18;;;;;;;20.57;18.57;;;23.80;55.50;;;;;;6277295;28;20224;-60
2022/10/16 15:00:25;;;;;;;22.87;20.70;;;23.70;56.20;;;;;;6277302;28;20242;-60
2022/10/16 15:03:28;;;;;;;21.30;19.10;;;23.60;57.10;;;;;;6277210;28;20235;-60
2022/10/16 15:06:31;;;;;;;22.33;20.07;;;23.50;57.80;;;;;;6277114;28;20297;-61
2022/10/16 15:09:35;;;;;;;24.60;22.00;;;23.40;58.60;;;;;;6277056;28;20223;-61
2022/10/16 15:12:38;;;;;;;25.73;23.23;;;23.40;59.40;;;;;;6277520;28;20278;-59
2022/10/16 15:15:45;;;;;;;24.77;22.40;;;23.10;60.60;;;;;;6277684;28;20236;-60
2022/10/16 15:18:48;;;;;;;27.37;24.57;;;22.90;62.00;;;;;;6277490;28;20230;-60
2022/10/16 15:21:52;;;;;;;25.43;23.03;;;22.90;63.40;;;;;;6276816;28;20238;-60
2022/10/16 15:24:55;;;;;;;26.73;24.13;;;22.70;64.90;;;;;;6276445;28;20231;-60
2022/10/16 15:27:59;;;;;;;25.90;23.30;;;22.60;66.20;;;;;;6276314;28;20551;-59
2022/10/16 15:31:05;;;;;;;26.77;23.07;;;22.50;67.60;;;;;;6276652;28;20219;-60
2022/10/16 15:34:10;;;;;;;27.17;24.43;;;22.40;69.00;;;;;;6276363;28;20232;-60
2022/10/16 15:37:13;;;;;;;26.70;24.03;;;22.30;70.60;;;;;;6276379;28;20246;-59
2022/10/16 15:40:18;;;;;;;30.23;27.03;;;22.20;71.60;;;;;;6275909;28;20235;-60
2022/10/16 15:43:21;;;;;;;29.33;26.10;;;22.20;73.10;;;;;;6275798;28;20669;-60
2022/10/16 15:46:27;;;;;;;28.30;25.40;;;22.00;74.40;;;;;;6276204;28;20232;-60
2022/10/16 15:49:30;;;;;;;28.80;25.80;;;22.00;75.70;;;;;;6261824;28;20704;-60